createdAt,value
2018-11-26T00:00:36.208Z,7.00
2018-11-26T00:03:11.639Z,7.00
2018-11-26T00:05:41.509Z,7.10
2018-11-26T00:08:13.970Z,7.10
2018-11-26T00:11:58.140Z,7.10
2018-11-26T00:14:27.537Z,7.00
2018-11-26T00:16:56.939Z,7.00
2018-11-26T00:19:26.316Z,7.10
2018-11-26T00:21:55.646Z,6.90
2018-11-26T00:24:25.027Z,6.90
2018-11-26T00:26:54.387Z,6.70
2018-11-26T00:29:23.761Z,6.70
2018-11-26T00:31:53.112Z,6.90
2018-11-26T00:34:22.585Z,6.90
2018-11-26T00:36:52.016Z,6.90
2018-11-26T00:39:21.410Z,7.00
2018-11-26T00:41:50.754Z,6.90
2018-11-26T00:44:20.107Z,7.00
2018-11-26T00:46:49.484Z,7.10
2018-11-26T00:49:18.827Z,7.00
2018-11-26T00:51:48.194Z,7.00
2018-11-26T00:54:17.634Z,7.10
2018-11-26T00:56:47.078Z,7.00
2018-11-26T00:59:16.478Z,6.90
2018-11-26T01:01:45.867Z,7.00
2018-11-26T01:04:15.334Z,7.10
2018-11-26T01:06:44.772Z,7.10
2018-11-26T01:09:14.191Z,7.00
2018-11-26T01:11:43.559Z,7.00
2018-11-26T01:14:12.965Z,7.10
2018-11-26T01:16:42.377Z,7.10
2018-11-26T01:19:11.751Z,7.00
2018-11-26T01:21:41.160Z,7.10
2018-11-26T01:24:10.552Z,7.00
2018-11-26T01:26:39.903Z,7.00
2018-11-26T01:29:10.226Z,7.10
2018-11-26T01:31:39.506Z,7.10
2018-11-26T01:34:08.818Z,7.10
2018-11-26T01:36:38.239Z,7.10
2018-11-26T01:39:09.534Z,7.20
2018-11-26T01:41:38.902Z,7.10
2018-11-26T01:44:08.257Z,7.20
2018-11-26T01:46:37.670Z,7.20
2018-11-26T01:49:07.009Z,7.10
2018-11-26T01:51:36.411Z,7.20
2018-11-26T01:54:06.657Z,7.20
2018-11-26T01:56:36.011Z,7.10
2018-11-26T01:59:05.401Z,7.20
2018-11-26T02:01:34.749Z,7.10
2018-11-26T02:04:05.247Z,7.30
2018-11-26T02:06:34.575Z,7.20
2018-11-26T02:09:04.407Z,7.20
2018-11-26T02:11:33.720Z,7.10
2018-11-26T02:14:03.047Z,7.20
2018-11-26T02:16:32.361Z,7.20
2018-11-26T02:19:01.835Z,7.30
2018-11-26T02:21:31.167Z,7.20
2018-11-26T02:24:00.436Z,7.20
2018-11-26T02:26:29.798Z,7.30
2018-11-26T02:28:59.171Z,7.30
2018-11-26T02:31:28.464Z,7.30
2018-11-26T02:33:57.882Z,7.20
2018-11-26T02:36:27.263Z,7.10
2018-11-26T02:38:56.868Z,7.30
2018-11-26T02:41:26.148Z,7.20
2018-11-26T02:43:55.467Z,7.30
2018-11-26T02:46:24.800Z,7.20
2018-11-26T02:48:54.148Z,7.20
2018-11-26T02:51:23.536Z,7.20
2018-11-26T02:53:52.861Z,7.30
2018-11-26T02:56:22.199Z,7.30
2018-11-26T02:58:51.492Z,7.30
2018-11-26T03:01:20.867Z,7.20
2018-11-26T03:03:50.218Z,7.20
2018-11-26T03:06:19.528Z,7.20
2018-11-26T03:08:49.027Z,7.40
2018-11-26T03:11:18.411Z,7.30
2018-11-26T03:13:47.751Z,7.10
2018-11-26T03:16:17.071Z,7.20
2018-11-26T03:18:46.415Z,7.20
2018-11-26T03:21:15.733Z,7.00
2018-11-26T03:23:45.414Z,7.10
2018-11-26T03:26:14.742Z,7.20
2018-11-26T03:28:44.087Z,7.10
2018-11-26T03:31:13.528Z,7.00
2018-11-26T03:33:43.102Z,7.10
2018-11-26T03:36:12.582Z,7.10
2018-11-26T03:38:52.260Z,6.90
2018-11-26T03:41:22.205Z,6.80
2018-11-26T03:43:51.561Z,7.00
2018-11-26T03:46:21.054Z,7.00
2018-11-26T03:48:50.424Z,7.10
2018-11-26T03:51:19.732Z,7.00
2018-11-26T03:53:49.101Z,7.10
2018-11-26T03:56:18.461Z,7.10
2018-11-26T03:58:47.874Z,7.00
2018-11-26T04:01:17.229Z,7.20
2018-11-26T04:03:46.653Z,7.20
2018-11-26T04:06:16.014Z,7.20
2018-11-26T04:08:46.491Z,7.20
2018-11-26T04:11:15.873Z,7.10
2018-11-26T04:13:45.157Z,7.10
2018-11-26T04:16:14.481Z,7.20
2018-11-26T04:18:43.878Z,7.00
2018-11-26T04:21:13.348Z,7.20
2018-11-26T04:23:42.685Z,7.00
2018-11-26T04:26:11.958Z,7.20
2018-11-26T04:28:41.304Z,7.20
2018-11-26T04:31:10.648Z,7.10
2018-11-26T04:33:39.926Z,6.90
2018-11-26T04:36:10.346Z,7.10
2018-11-26T04:38:39.673Z,7.00
2018-11-26T04:41:09.052Z,7.10
2018-11-26T04:43:38.368Z,7.00
2018-11-26T04:46:07.921Z,7.00
2018-11-26T04:48:37.355Z,7.10
2018-11-26T04:51:06.987Z,7.10
2018-11-26T04:53:36.255Z,7.20
2018-11-26T04:56:05.802Z,7.20
2018-11-26T04:58:35.123Z,7.20
2018-11-26T05:01:04.393Z,7.20
2018-11-26T05:03:33.726Z,7.10
2018-11-26T05:06:03.039Z,7.20
2018-11-26T05:08:32.332Z,7.10
2018-11-26T05:11:01.864Z,7.10
2018-11-26T05:13:31.410Z,7.10
2018-11-26T05:16:00.803Z,7.00
2018-11-26T05:18:30.157Z,7.10
2018-11-26T05:20:59.476Z,7.20
2018-11-26T05:23:28.843Z,7.20
2018-11-26T05:25:58.175Z,7.20
2018-11-26T05:28:27.494Z,7.10
2018-11-26T05:30:56.787Z,7.10
2018-11-26T05:33:26.098Z,7.00
2018-11-26T05:35:55.467Z,7.00
2018-11-26T05:38:24.767Z,7.10
2018-11-26T05:40:54.092Z,7.20
2018-11-26T05:43:24.527Z,7.00
2018-11-26T05:45:53.891Z,7.10
2018-11-26T05:48:23.275Z,7.00
2018-11-26T05:50:52.750Z,7.00
2018-11-26T05:53:22.133Z,7.00
2018-11-26T05:55:51.515Z,6.90
2018-11-26T05:58:20.883Z,7.00
2018-11-26T06:00:50.287Z,7.00
2018-11-26T06:03:19.604Z,6.80
2018-11-26T06:05:48.864Z,7.00
2018-11-26T06:08:18.235Z,7.00
2018-11-26T06:10:47.552Z,7.00
2018-11-26T06:13:17.998Z,7.10
2018-11-26T06:15:47.366Z,7.10
2018-11-26T06:18:16.690Z,7.00
2018-11-26T06:20:46.043Z,6.90
2018-11-26T06:23:15.447Z,7.00
2018-11-26T06:25:44.850Z,6.80
2018-11-26T06:28:14.304Z,6.90
2018-11-26T06:30:43.631Z,6.90
2018-11-26T06:33:12.929Z,6.90
2018-11-26T06:35:42.279Z,6.80
2018-11-26T06:38:11.893Z,6.90
2018-11-26T06:40:41.304Z,7.00
2018-11-26T06:43:10.682Z,7.00
2018-11-26T06:45:39.987Z,6.90
2018-11-26T06:48:09.392Z,6.90
2018-11-26T06:50:38.793Z,7.10
2018-11-26T06:53:08.413Z,6.90
2018-11-26T06:55:37.736Z,6.90
2018-11-26T06:58:07.106Z,6.90
2018-11-26T07:00:36.453Z,7.00
2018-11-26T07:03:05.866Z,7.00
2018-11-26T07:05:35.246Z,7.00
2018-11-26T07:08:05.793Z,7.10
2018-11-26T07:10:35.048Z,7.10
2018-11-26T07:13:06.062Z,7.10
2018-11-26T07:15:35.379Z,7.10
2018-11-26T07:18:05.012Z,6.90
2018-11-26T07:20:34.298Z,6.80
2018-11-26T07:23:04.143Z,6.90
2018-11-26T07:25:33.379Z,6.80
2018-11-26T07:28:04.867Z,7.00
2018-11-26T07:30:34.179Z,7.00
2018-11-26T07:33:07.566Z,6.90
2018-11-26T07:35:37.504Z,6.90
2018-11-26T07:38:07.130Z,6.90
2018-11-26T07:40:36.671Z,7.00
2018-11-26T07:43:10.532Z,7.00
2018-11-26T07:45:40.916Z,7.00
2018-11-26T07:48:12.420Z,7.00
2018-11-26T07:50:41.912Z,6.90
2018-11-26T07:53:12.106Z,7.10
2018-11-26T07:55:41.910Z,7.10
2018-11-26T07:58:11.255Z,7.00
2018-11-26T08:00:40.682Z,7.00
2018-11-26T08:03:12.128Z,7.00
2018-11-26T08:05:42.567Z,6.70
2018-11-26T08:08:12.200Z,6.80
2018-11-26T08:10:41.709Z,6.80
2018-11-26T08:13:11.056Z,6.90
2018-11-26T08:15:40.387Z,6.60
2018-11-26T08:18:09.763Z,6.60
2018-11-26T08:20:39.167Z,6.80
2018-11-26T08:23:08.616Z,6.50
2018-11-26T08:25:37.948Z,6.60
2018-11-26T08:28:07.722Z,6.60
2018-11-26T08:30:37.065Z,6.70
2018-11-26T08:33:07.164Z,6.70
2018-11-26T08:35:38.506Z,6.80
2018-11-26T08:38:13.111Z,6.80
2018-11-26T08:40:43.685Z,6.80
2018-11-26T08:43:20.093Z,6.90
2018-11-26T08:45:55.418Z,6.90
2018-11-26T08:48:30.996Z,6.40
2018-11-26T08:51:02.248Z,6.70
2018-11-26T08:53:31.810Z,6.70
2018-11-26T08:56:05.167Z,6.70
2018-11-26T08:58:34.464Z,6.60
2018-11-26T09:01:11.209Z,6.50
2018-11-26T09:03:45.693Z,6.40
2018-11-26T09:06:17.534Z,6.50
2018-11-26T09:08:46.828Z,6.50
2018-11-26T09:11:16.221Z,6.50
2018-11-26T09:13:45.486Z,6.40
2018-11-26T09:16:14.858Z,6.60
2018-11-26T09:18:44.226Z,6.00
2018-11-26T09:21:13.613Z,6.10
2018-11-26T09:23:44.180Z,6.20
2018-11-26T09:26:13.533Z,6.30
2018-11-26T09:28:42.812Z,6.30
2018-11-26T09:31:12.131Z,6.10
2018-11-26T09:33:41.461Z,6.40
2018-11-26T09:36:10.842Z,6.40
2018-11-26T09:38:41.194Z,6.20
2018-11-26T09:41:10.469Z,6.00
2018-11-26T09:43:39.814Z,6.20
2018-11-26T09:46:11.230Z,6.20
2018-11-26T09:48:40.558Z,6.40
2018-11-26T09:51:14.139Z,6.20
2018-11-26T09:53:39.454Z,6.20
2018-11-26T09:56:08.861Z,6.30
2018-11-26T09:58:38.206Z,6.30
2018-11-26T10:01:07.569Z,6.40
2018-11-26T10:03:37.976Z,6.20
2018-11-26T10:06:07.466Z,6.40
2018-11-26T10:08:36.850Z,6.50
2018-11-26T10:11:06.239Z,6.60
2018-11-26T10:13:35.606Z,6.70
2018-11-26T10:16:04.947Z,6.30
2018-11-26T10:18:44.124Z,6.30
2018-11-26T10:21:13.374Z,6.00
2018-11-26T10:23:42.726Z,6.20
2018-11-26T10:26:13.152Z,6.50
2018-11-26T10:28:42.411Z,6.40
2018-11-26T10:31:11.893Z,6.30
2018-11-26T10:33:41.165Z,6.40
2018-11-26T10:36:10.446Z,6.60
2018-11-26T10:38:39.695Z,6.40
2018-11-26T10:41:08.986Z,6.40
2018-11-26T10:43:38.291Z,6.30
2018-11-26T10:46:07.693Z,6.50
2018-11-26T10:48:38.083Z,6.50
2018-11-26T10:51:07.884Z,6.40
2018-11-26T10:53:37.156Z,6.40
2018-11-26T10:56:07.370Z,6.40
2018-11-26T10:58:36.665Z,6.40
2018-11-26T11:01:11.186Z,6.40
2018-11-26T11:03:40.466Z,6.40
2018-11-26T11:06:09.826Z,6.40
2018-11-26T11:08:39.171Z,6.50
2018-11-26T11:11:09.572Z,6.70
2018-11-26T11:13:40.650Z,6.70
2018-11-26T11:16:09.511Z,6.60
2018-11-26T11:18:38.842Z,6.10
2018-11-26T11:21:08.294Z,6.60
2018-11-26T11:23:37.686Z,6.60
2018-11-26T11:26:07.147Z,6.30
2018-11-26T11:28:37.594Z,6.30
2018-11-26T11:31:07.474Z,6.50
2018-11-26T11:33:38.515Z,6.70
2018-11-26T11:36:07.328Z,6.50
2018-11-26T11:38:37.704Z,6.40
2018-11-26T11:41:07.314Z,6.60
2018-11-26T11:43:36.649Z,6.80
2018-11-26T11:46:07.347Z,6.80
2018-11-26T11:48:36.668Z,6.80
2018-11-26T11:51:07.051Z,6.80
2018-11-26T11:53:37.404Z,6.40
2018-11-26T11:56:07.675Z,6.40
2018-11-26T11:58:37.032Z,6.60
2018-11-26T12:01:10.653Z,6.60
2018-11-26T12:03:36.494Z,6.30
2018-11-26T12:06:05.846Z,6.30
2018-11-26T12:08:35.333Z,6.50
2018-11-26T12:11:04.687Z,6.30
2018-11-26T12:13:34.012Z,6.40
2018-11-26T12:16:04.476Z,6.60
2018-11-26T12:18:34.888Z,6.50
2018-11-26T12:21:04.223Z,6.30
2018-11-26T12:23:35.672Z,6.40
2018-11-26T12:26:05.111Z,6.30
2018-11-26T12:28:34.562Z,6.50
2018-11-26T12:31:04.256Z,6.00
2018-11-26T12:33:33.539Z,6.20
2018-11-26T12:36:03.943Z,6.20
2018-11-26T12:38:33.294Z,6.30
2018-11-26T12:41:02.663Z,6.50
2018-11-26T12:43:33.127Z,6.50
2018-11-26T12:46:02.489Z,6.40
2018-11-26T12:48:31.796Z,6.30
2018-11-26T12:51:02.207Z,6.40
2018-11-26T12:53:31.500Z,6.30
2018-11-26T12:56:02.828Z,6.50
2018-11-26T12:58:32.116Z,6.40
2018-11-26T13:01:01.403Z,6.50
2018-11-26T13:03:30.687Z,6.50
2018-11-26T13:05:59.987Z,6.50
2018-11-26T13:08:30.367Z,6.20
2018-11-26T13:10:59.792Z,6.30
2018-11-26T13:13:29.165Z,6.40
2018-11-26T13:15:58.499Z,6.60
2018-11-26T13:18:27.775Z,6.50
2018-11-26T13:20:57.149Z,6.40
2018-11-26T13:23:26.492Z,6.60
2018-11-26T13:25:55.962Z,6.70
2018-11-26T13:28:25.413Z,6.60
2018-11-26T13:30:54.744Z,6.60
2018-11-26T13:33:24.111Z,6.60
2018-11-26T13:35:53.444Z,6.60
2018-11-26T13:38:22.820Z,6.60
2018-11-26T13:40:52.313Z,6.60
2018-11-26T13:43:21.622Z,6.70
2018-11-26T13:45:51.142Z,6.40
2018-11-26T13:48:20.667Z,6.60
2018-11-26T13:50:54.124Z,6.60
2018-11-26T13:53:23.405Z,6.60
2018-11-26T13:55:52.698Z,6.50
2018-11-26T13:58:22.008Z,6.40
2018-11-26T14:00:51.367Z,6.30
2018-11-26T14:03:21.694Z,6.50
2018-11-26T14:05:51.092Z,6.40
2018-11-26T14:08:20.763Z,6.40
2018-11-26T14:10:50.171Z,6.40
2018-11-26T14:13:19.520Z,6.50
2018-11-26T14:15:49.942Z,6.40
2018-11-26T14:18:19.222Z,6.40
2018-11-26T14:20:50.675Z,6.40
2018-11-26T14:23:20.034Z,6.40
2018-11-26T14:25:49.403Z,6.40
2018-11-26T14:28:19.799Z,6.40
2018-11-26T14:30:49.174Z,6.30
2018-11-26T14:33:20.711Z,6.40
2018-11-26T14:35:50.042Z,6.30
2018-11-26T14:38:20.449Z,6.30
2018-11-26T14:40:53.855Z,6.40
2018-11-26T14:43:23.320Z,6.20
2018-11-26T14:45:52.694Z,6.40
2018-11-26T14:48:22.263Z,6.30
2018-11-26T14:50:51.876Z,6.20
2018-11-26T14:53:21.275Z,5.90
2018-11-26T14:55:52.754Z,6.10
2018-11-26T14:58:22.177Z,6.10
2018-11-26T15:00:55.050Z,6.20
2018-11-26T15:03:24.630Z,6.20
2018-11-26T15:05:56.113Z,6.20
2018-11-26T15:08:25.640Z,6.10
2018-11-26T15:10:56.168Z,6.10
2018-11-26T15:13:25.746Z,6.20
2018-11-26T15:15:55.093Z,6.00
2018-11-26T15:18:24.607Z,5.80
2018-11-26T15:20:53.949Z,5.80
2018-11-26T15:23:23.431Z,5.90
2018-11-26T15:25:52.883Z,6.10
2018-11-26T15:28:22.270Z,6.00
2018-11-26T15:30:51.596Z,6.00
2018-11-26T15:33:20.927Z,6.00
2018-11-26T15:35:50.302Z,5.90
2018-11-26T15:38:19.627Z,5.90
2018-11-26T15:40:49.187Z,6.00
2018-11-26T15:43:18.586Z,6.00
2018-11-26T15:45:47.915Z,6.00
2018-11-26T15:48:18.336Z,6.10
2018-11-26T15:50:47.732Z,6.00
2018-11-26T15:53:17.063Z,6.20
2018-11-26T15:55:46.451Z,6.00
2018-11-26T15:58:15.778Z,6.10
2018-11-26T16:00:45.122Z,6.10
2018-11-26T16:03:14.588Z,5.90
2018-11-26T16:05:43.990Z,6.00
2018-11-26T16:08:17.894Z,6.00
2018-11-26T16:10:47.339Z,6.10
2018-11-26T16:13:17.228Z,6.10
2018-11-26T16:15:47.195Z,6.10
2018-11-26T16:18:21.887Z,6.10
2018-11-26T16:20:51.762Z,6.00
2018-11-26T16:23:21.487Z,6.10
2018-11-26T16:25:50.969Z,6.00
2018-11-26T16:28:24.075Z,6.10
2018-11-26T16:30:53.666Z,6.10
2018-11-26T16:33:23.023Z,6.10
2018-11-26T16:35:54.421Z,6.10
2018-11-26T16:38:23.793Z,6.10
2018-11-26T16:40:53.492Z,6.20
2018-11-26T16:43:23.125Z,6.00
2018-11-26T16:45:53.531Z,6.10
2018-11-26T16:48:24.841Z,6.10
2018-11-26T16:50:54.180Z,5.80
2018-11-26T16:53:23.541Z,6.00
2018-11-26T16:55:53.105Z,6.10
2018-11-26T16:58:22.523Z,6.00
2018-11-26T17:00:54.040Z,6.00
2018-11-26T17:03:23.372Z,5.90
2018-11-26T17:05:52.734Z,6.00
2018-11-26T17:08:22.092Z,5.90
2018-11-26T17:10:51.449Z,6.00
2018-11-26T17:13:20.807Z,5.90
2018-11-26T17:15:50.207Z,6.00
2018-11-26T17:18:19.568Z,5.80
2018-11-26T17:20:48.901Z,5.90
2018-11-26T17:23:18.818Z,5.90
2018-11-26T17:25:48.235Z,5.90
2018-11-26T17:28:17.653Z,5.90
2018-11-26T17:30:47.067Z,6.00
2018-11-26T17:33:16.492Z,6.00
2018-11-26T17:35:45.904Z,6.00
2018-11-26T17:38:15.254Z,6.00
2018-11-26T17:40:44.734Z,6.10
2018-11-26T17:43:15.491Z,6.00
2018-11-26T17:45:44.867Z,6.10
2018-11-26T17:48:14.236Z,6.10
2018-11-26T17:50:45.697Z,6.00
2018-11-26T17:53:20.696Z,6.10
2018-11-26T17:55:55.769Z,6.20
2018-11-26T17:58:27.052Z,6.10
2018-11-26T18:01:02.111Z,6.20
2018-11-26T18:03:31.523Z,6.20
2018-11-26T18:06:00.814Z,6.10
2018-11-26T18:08:30.127Z,6.10
2018-11-26T18:10:59.423Z,6.20
2018-11-26T18:13:28.787Z,6.20
2018-11-26T18:15:58.187Z,6.20
2018-11-26T18:18:27.524Z,6.30
2018-11-26T18:20:56.878Z,6.30
2018-11-26T18:23:26.336Z,6.20
2018-11-26T18:25:55.933Z,6.00
2018-11-26T18:28:25.313Z,6.20
2018-11-26T18:30:54.846Z,6.10
2018-11-26T18:33:24.166Z,6.10
2018-11-26T18:35:53.520Z,6.10
2018-11-26T18:38:22.909Z,6.30
2018-11-26T18:40:52.947Z,6.20
2018-11-26T18:43:22.388Z,6.10
2018-11-26T18:45:51.769Z,6.20
2018-11-26T18:48:22.439Z,6.30
2018-11-26T18:50:50.650Z,6.20
2018-11-26T18:53:20.031Z,6.20
2018-11-26T18:55:49.585Z,6.10
2018-11-26T18:58:19.009Z,6.30
2018-11-26T19:00:57.581Z,6.20
2018-11-26T19:03:26.865Z,6.20
2018-11-26T19:05:56.253Z,6.40
2018-11-26T19:08:26.639Z,6.30
2018-11-26T19:11:03.060Z,6.40
2018-11-26T19:13:39.531Z,6.30
2018-11-26T19:16:20.091Z,6.30
2018-11-26T19:18:59.074Z,6.20
2018-11-26T19:21:28.524Z,6.30
2018-11-26T19:23:57.916Z,6.20
2018-11-26T19:26:27.518Z,6.20
2018-11-26T19:28:56.927Z,6.20
2018-11-26T19:31:26.214Z,6.00
2018-11-26T19:33:55.551Z,6.10
2018-11-26T19:36:24.854Z,6.20
2018-11-26T19:38:56.437Z,6.10
2018-11-26T19:41:27.847Z,5.90
2018-11-26T19:43:58.253Z,6.00
2018-11-26T19:46:27.627Z,6.00
2018-11-26T19:48:56.996Z,6.00
2018-11-26T19:51:27.029Z,6.00
2018-11-26T19:53:56.678Z,6.00
2018-11-26T19:56:29.935Z,6.00
2018-11-26T19:58:59.764Z,5.90
2018-11-26T20:01:30.121Z,6.00
2018-11-26T20:04:16.274Z,5.90
2018-11-26T20:06:46.719Z,6.00
2018-11-26T20:09:16.099Z,6.00
2018-11-26T20:11:45.399Z,6.00
2018-11-26T20:14:21.282Z,6.00
2018-11-26T20:16:45.641Z,6.10
2018-11-26T20:19:14.975Z,6.20
2018-11-26T20:21:44.321Z,6.20
2018-11-26T20:24:13.743Z,6.20
2018-11-26T20:26:43.970Z,6.30
2018-11-26T20:29:13.342Z,6.20
2018-11-26T20:31:43.840Z,6.30
2018-11-26T20:34:13.542Z,6.30
2018-11-26T20:36:45.038Z,6.20
2018-11-26T20:39:16.496Z,6.10
2018-11-26T20:41:45.938Z,6.10
2018-11-26T20:44:15.262Z,6.20
2018-11-26T20:46:49.536Z,6.10
2018-11-26T20:49:18.860Z,6.20
2018-11-26T20:51:48.324Z,6.30
2018-11-26T20:54:17.814Z,6.30
2018-11-26T20:56:47.289Z,6.20
2018-11-26T20:59:16.571Z,6.20
2018-11-26T21:01:45.920Z,6.20
2018-11-26T21:04:15.322Z,6.20
2018-11-26T21:06:45.031Z,6.20
2018-11-26T21:09:14.775Z,6.10
2018-11-26T21:11:44.288Z,6.20
2018-11-26T21:14:13.643Z,6.20
2018-11-26T21:16:43.067Z,6.20
2018-11-26T21:19:12.455Z,6.20
2018-11-26T21:21:42.928Z,6.20
2018-11-26T21:24:13.419Z,6.00
2018-11-26T21:26:43.349Z,6.10
2018-11-26T21:29:13.563Z,6.10
2018-11-26T21:31:46.504Z,6.20
2018-11-26T21:34:16.123Z,6.20
2018-11-26T21:36:46.024Z,6.20
2018-11-26T21:39:15.675Z,6.20
2018-11-26T21:41:45.464Z,6.10
2018-11-26T21:44:15.195Z,6.20
2018-11-26T21:46:46.935Z,6.20
2018-11-26T21:49:16.743Z,6.20
2018-11-26T21:51:46.631Z,6.20
2018-11-26T21:54:16.404Z,6.20
2018-11-26T21:56:49.398Z,6.30
2018-11-26T21:59:19.167Z,6.20
2018-11-26T22:01:48.900Z,6.30
2018-11-26T22:04:18.607Z,6.10
2018-11-26T22:06:53.229Z,6.30
2018-11-26T22:09:23.100Z,6.20
2018-11-26T22:11:52.715Z,6.20
2018-11-26T22:14:22.346Z,6.20
2018-11-26T22:16:52.112Z,6.20
2018-11-26T22:19:21.793Z,6.20
2018-11-26T22:21:51.440Z,6.20
2018-11-26T22:24:21.238Z,6.00
2018-11-26T22:26:50.897Z,6.20
2018-11-26T22:29:20.523Z,6.30
2018-11-26T22:31:50.202Z,6.30
2018-11-26T22:34:19.836Z,6.00
2018-11-26T22:36:49.604Z,5.80
2018-11-26T22:39:19.275Z,6.20
2018-11-26T22:41:48.980Z,6.20
2018-11-26T22:44:18.857Z,6.20
2018-11-26T22:46:48.694Z,6.30
2018-11-26T22:49:18.387Z,6.30
2018-11-26T22:51:51.427Z,6.40
2018-11-26T22:54:17.957Z,6.20
2018-11-26T22:56:48.742Z,6.20
2018-11-26T22:59:18.568Z,6.30
2018-11-26T23:01:48.315Z,6.30
2018-11-26T23:04:18.883Z,6.20
2018-11-26T23:06:48.776Z,6.20
2018-11-26T23:09:18.504Z,6.20
2018-11-26T23:11:48.151Z,6.20
2018-11-26T23:14:17.853Z,6.20
2018-11-26T23:16:47.520Z,6.20
2018-11-26T23:19:17.099Z,6.20
2018-11-26T23:21:46.761Z,6.20
2018-11-26T23:24:16.492Z,6.20
2018-11-26T23:26:46.201Z,6.20
2018-11-26T23:29:15.826Z,6.20
2018-11-26T23:31:45.463Z,6.20
2018-11-26T23:34:15.047Z,6.30
2018-11-26T23:36:44.738Z,6.30
2018-11-26T23:39:14.445Z,6.30
2018-11-26T23:41:44.087Z,6.30
2018-11-26T23:44:13.718Z,6.30
2018-11-26T23:46:43.370Z,6.20
2018-11-26T23:49:13.065Z,6.20
2018-11-26T23:51:42.766Z,6.30
2018-11-26T23:54:12.352Z,6.40
2018-11-26T23:56:41.944Z,6.30
2018-11-26T23:59:11.544Z,6.10
